Nearby METAR Reports

 

KCMA - Camarillo, California, USA
Distance from station: WSW 4mi, 7km
Updated: Tue, 23-Apr-2019 10:55am PDT
Clear
Clear
 Wind from SW
Wind: SW 7 mph , 11 km/h
Temperature: 73°F , 23°C
Dew Point: 54°F , 12°C
Humidity: 50%
Barometer: 29.98 inHg , 1015.2 hPa
Clouds: Clear
Visibility: 8 miles , 13 km
2019/04/23 17:55 KCMA 231755Z 23006KT 8SM CLR 23/12 A2998 RMK AO2 SLP161 T02330117 10239 20106 50004
KNTD - Point Mugu Nas, California, USA
Distance from station: SSW 9mi, 15km
Updated: Tue, 23-Apr-2019 10:57am PDT
Clear
Clear
 Wind from SW
Wind: SW 7 mph , 11 km/h
Temperature: 64°F , 18°C
Dew Point: 57°F , 14°C
Humidity: 78%
Barometer: 30.00 inHg , 1015.9 hPa
Clouds: Clear
Visibility: 7 miles , 11 km
2019/04/23 17:57 KNTD 231757Z 22006KT 7SM CLR 18/14 A3000 RMK AO2 SLP161 T01830144 10189 20100 51009 $
 
KOXR - Oxnard, California, USA
Distance from station: WSW 10mi, 16km
Updated: Tue, 23-Apr-2019 10:51am PDT
Clear
Clear
 Wind from WSW
Wind: WSW 8 mph , 13 km/h
Temperature: 66°F , 19°C
Dew Point: 55°F , 13°C
Humidity: 68%
Barometer: 29.99 inHg , 1015.6 hPa
Clouds: Clear
Visibility: 8 miles , 13 km
2019/04/23 17:51 KOXR 231751Z 25007KT 8SM CLR 19/13 A2999 RMK AO2 SLP155 T01890128 10194 20111 50005 $
KVNY - Van Nuys, California, USA
Distance from station: E 31mi, 50km
Updated: Tue, 23-Apr-2019 10:51am PDT
Partly cloudy
Partly cloudy
 Wind from NNE
Wind: NNE 9 mph , 15 km/h, Gust: 17 mph , 28 km/h
Temperature: 88°F , 31°C
Dew Point: 36°F , 2°C
Humidity: 16%
Barometer: 29.96 inHg , 1014.6 hPa
Clouds: Partly cloudy
Visibility: 10 miles , 16 km
Cloud details: Partly cloudy 20000 ft
2019/04/23 17:51 KVNY 231751Z 03008G15KT 10SM SCT200 31/02 A2996 RMK AO2 RAE16 SLP136 P0000 60000 T03110017 10311 20133 58003
 
KWHP - La / Whiteman, California, USA
Distance from station: E 35mi, 56km
Updated: Tue, 23-Apr-2019 11:50am PDT
Clear
Clear
 Wind from N
Wind: N 16 mph , 26 km/h, Gust: 23 mph , 37 km/h
Temperature: 86°F , 30°C
Dew Point: 28°F , -2°C
Humidity: 12%
Barometer: 29.99 inHg , 1015.6 hPa
Clouds: Clear
Visibility: 10 miles , 16 km
2019/04/23 18:50 KWHP 231850Z 36014G20KT 10SM SKC 30/M02 A2999
KSMO - Santa Monica, California, USA
Distance from station: ESE 36mi, 58km
Updated: Tue, 23-Apr-2019 10:51am PDT
Clear
Clear
 Wind from WSW
Wind: WSW 6 mph , 9 km/h
Temperature: 66°F , 19°C
Dew Point: 55°F , 13°C
Humidity: 68%
Barometer: 29.98 inHg , 1015.2 hPa
Clouds: Clear
Visibility: 9 miles , 14 km
2019/04/23 17:51 KSMO 231751Z 24005KT 9SM CLR 19/13 A2998 RMK AO2 SLP152 T01940128 10206 20128 56002
 
KBUR - Burbank, California, USA
Distance from station: E 38mi, 61km
Updated: Tue, 23-Apr-2019 10:53am PDT
Clear
Clear
 Wind from SE
Wind: SE 10 mph , 17 km/h
Temperature: 75°F , 24°C
Dew Point: 52°F , 11°C
Humidity: 44%
Barometer: 29.96 inHg , 1014.6 hPa
Clouds: Clear
Visibility: 10 miles , 16 km
2019/04/23 17:53 KBUR 231753Z 13009KT 10SM CLR 24/11 A2996 RMK AO2 SLP134 T02440111 10244 20128 58005 $
KSDB - Sandberg, California, USA
Distance from station: NNE 40mi, 64km
Updated: Tue, 23-Apr-2019 10:53am PDT
Clear
Clear
 Wind from E
Wind: E 16 mph , 26 km/h, Gust: 21 mph , 33 km/h
Temperature: 72°F , 22°C
Dew Point: 32°F , 0°C
Humidity: 23%
Barometer: 30.16 inHg , 1021.3 hPa
Clouds: Clear
Visibility: 10 miles , 16 km
2019/04/23 17:53 KSDB 231753Z AUTO 09014G18KT 10SM CLR 22/00 A3016 RMK AO2 SLP169 T02170000 10217 20128 53006 $
 
KLAX - Los Angeles, California, USA
Distance from station: ESE 42mi, 68km
Updated: Tue, 23-Apr-2019 10:53am PDT
Partly cloudy
Partly cloudy
 Wind from W
Wind: W 12 mph , 19 km/h
Temperature: 70°F , 21°C
Dew Point: 55°F , 13°C
Humidity: 60%
Barometer: 29.98 inHg , 1015.2 hPa
Clouds: Partly cloudy
Visibility: 7 miles , 11 km
Cloud details: Few Clouds 1900 ft
Few Clouds 9000 ft
Partly cloudy 18000 ft
2019/04/23 17:53 KLAX 231753Z 27010KT 7SM FEW019 FEW090 SCT180 21/13 A2998 RMK AO2 SLP149 T02060133 10222 20139 56002
KCQT - Los Angeles, California, USA
Distance from station: ESE 45mi, 73km
Updated: Tue, 23-Apr-2019 10:47am PDT
Clear
Clear
 Wind from calm
Wind: Calm
Temperature: 73°F , 23°C
Dew Point: 57°F , 14°C
Humidity: 57%
Barometer: 29.96 inHg , 1014.6 hPa
Clouds: Clear
Visibility: 8 miles , 13 km
2019/04/23 17:47 KCQT 231747Z AUTO 00000KT 8SM CLR 23/14 A2996 RMK AO2 SLP145 T02330139 10233 20133 58003
 
KHHR - Hawthorne, California, USA
Distance from station: ESE 45mi, 73km
Updated: Tue, 23-Apr-2019 11:32am PDT
Haze, Clear
Haze, Clear
 Wind from W
Wind: W 12 mph , 19 km/h
Temperature: 70°F , 21°C
Dew Point: 55°F , 13°C
Humidity: 60%
Barometer: 29.98 inHg , 1015.2 hPa
Summary: Haze
Clouds: Clear
Visibility: 1 3/4 miles , 2.8 km
2019/04/23 18:32 KHHR 231832Z 27010KT 1 3/4SM HZ CLR 21/13 A2998 RMK AO2 T02060133
KSBA - Santa Barbara, California, USA
Distance from station: WNW 49mi, 79km
Updated: Tue, 23-Apr-2019 10:53am PDT
Clear
Clear
 Wind from SE
Wind: SE 7 mph , 11 km/h
Temperature: 66°F , 19°C
Dew Point: 54°F , 12°C
Humidity: 64%
Barometer: 29.99 inHg , 1015.6 hPa
Clouds: Clear
Visibility: 9 miles , 14 km
2019/04/23 17:53 KSBA 231753Z 14006KT 9SM CLR 19/12 A2999 RMK AO2 SLP156 T01890122 10189 20111 50004